sensor_id;sensor_type;location;lat;lon;timestamp;P1;durP1;ratioP1;P2;durP2;ratioP2
10851;SDS011;5479;52.046;6.314;2022-10-17T00:00:03;15.13;;;13.47;;
10851;SDS011;5479;52.046;6.314;2022-10-17T00:02:31;17.47;;;14.17;;
10851;SDS011;5479;52.046;6.314;2022-10-17T00:04:59;17.30;;;14.90;;
10851;SDS011;5479;52.046;6.314;2022-10-17T00:07:28;16.67;;;14.87;;
10851;SDS011;5479;52.046;6.314;2022-10-17T00:09:57;15.93;;;14.20;;
10851;SDS011;5479;52.046;6.314;2022-10-17T00:12:26;18.77;;;15.27;;
10851;SDS011;5479;52.046;6.314;2022-10-17T00:14:54;20.83;;;14.70;;
10851;SDS011;5479;52.046;6.314;2022-10-17T00:17:22;16.07;;;14.37;;
10851;SDS011;5479;52.046;6.314;2022-10-17T00:19:50;17.77;;;15.63;;
10851;SDS011;5479;52.046;6.314;2022-10-17T00:22:18;16.80;;;14.97;;
10851;SDS011;5479;52.046;6.314;2022-10-17T00:24:46;16.40;;;14.43;;
10851;SDS011;5479;52.046;6.314;2022-10-17T00:27:14;17.97;;;15.00;;
10851;SDS011;5479;52.046;6.314;2022-10-17T00:29:43;18.60;;;14.43;;
10851;SDS011;5479;52.046;6.314;2022-10-17T00:32:15;17.10;;;15.30;;
10851;SDS011;5479;52.046;6.314;2022-10-17T00:34:43;20.27;;;15.30;;
10851;SDS011;5479;52.046;6.314;2022-10-17T00:37:10;17.67;;;15.40;;
10851;SDS011;5479;52.046;6.314;2022-10-17T00:39:38;17.07;;;15.27;;
10851;SDS011;5479;52.046;6.314;2022-10-17T00:42:08;17.13;;;15.37;;
10851;SDS011;5479;52.046;6.314;2022-10-17T00:47:47;16.97;;;15.10;;
10851;SDS011;5479;52.046;6.314;2022-10-17T00:50:18;18.60;;;15.37;;
10851;SDS011;5479;52.046;6.314;2022-10-17T00:52:47;17.60;;;15.43;;
10851;SDS011;5479;52.046;6.314;2022-10-17T00:55:16;19.40;;;16.00;;
10851;SDS011;5479;52.046;6.314;2022-10-17T00:57:48;17.73;;;15.53;;
10851;SDS011;5479;52.046;6.314;2022-10-17T01:00:18;19.20;;;15.60;;
10851;SDS011;5479;52.046;6.314;2022-10-17T01:02:46;18.83;;;16.23;;
10851;SDS011;5479;52.046;6.314;2022-10-17T01:05:15;20.53;;;17.10;;
10851;SDS011;5479;52.046;6.314;2022-10-17T01:07:44;21.00;;;16.73;;
10851;SDS011;5479;52.046;6.314;2022-10-17T01:10:15;17.57;;;15.67;;
10851;SDS011;5479;52.046;6.314;2022-10-17T01:12:47;21.53;;;16.77;;
10851;SDS011;5479;52.046;6.314;2022-10-17T01:15:31;20.93;;;17.30;;
10851;SDS011;5479;52.046;6.314;2022-10-17T01:18:10;21.90;;;17.43;;
10851;SDS011;5479;52.046;6.314;2022-10-17T01:20:55;20.30;;;16.43;;
10851;SDS011;5479;52.046;6.314;2022-10-17T01:23:41;20.33;;;16.10;;
10851;SDS011;5479;52.046;6.314;2022-10-17T01:26:22;21.00;;;16.80;;
10851;SDS011;5479;52.046;6.314;2022-10-17T01:29:08;19.80;;;16.27;;
10851;SDS011;5479;52.046;6.314;2022-10-17T01:31:57;20.10;;;16.33;;
10851;SDS011;5479;52.046;6.314;2022-10-17T01:34:30;19.97;;;17.27;;
10851;SDS011;5479;52.046;6.314;2022-10-17T01:37:03;20.23;;;17.00;;
10851;SDS011;5479;52.046;6.314;2022-10-17T01:39:38;18.87;;;16.27;;
10851;SDS011;5479;52.046;6.314;2022-10-17T01:42:10;22.97;;;17.27;;
10851;SDS011;5479;52.046;6.314;2022-10-17T01:44:43;19.87;;;17.53;;
10851;SDS011;5479;52.046;6.314;2022-10-17T01:47:18;22.40;;;17.23;;
10851;SDS011;5479;52.046;6.314;2022-10-17T01:49:48;19.87;;;16.43;;
10851;SDS011;5479;52.046;6.314;2022-10-17T01:52:21;19.93;;;17.30;;
10851;SDS011;5479;52.046;6.314;2022-10-17T01:54:53;20.93;;;16.17;;
10851;SDS011;5479;52.046;6.314;2022-10-17T01:57:26;19.93;;;17.23;;
10851;SDS011;5479;52.046;6.314;2022-10-17T01:59:59;23.70;;;18.43;;
10851;SDS011;5479;52.046;6.314;2022-10-17T02:02:30;21.07;;;17.40;;
10851;SDS011;5479;52.046;6.314;2022-10-17T02:04:59;19.77;;;17.03;;
10851;SDS011;5479;52.046;6.314;2022-10-17T02:07:30;19.93;;;17.40;;
10851;SDS011;5479;52.046;6.314;2022-10-17T02:09:58;20.57;;;17.23;;
10851;SDS011;5479;52.046;6.314;2022-10-17T02:12:29;21.83;;;17.37;;
10851;SDS011;5479;52.046;6.314;2022-10-17T02:15:09;22.30;;;16.87;;
10851;SDS011;5479;52.046;6.314;2022-10-17T02:17:56;20.50;;;16.87;;
10851;SDS011;5479;52.046;6.314;2022-10-17T02:20:36;22.13;;;17.60;;
10851;SDS011;5479;52.046;6.314;2022-10-17T02:23:11;19.27;;;16.40;;
10851;SDS011;5479;52.046;6.314;2022-10-17T02:25:47;21.03;;;17.07;;
10851;SDS011;5479;52.046;6.314;2022-10-17T02:28:20;21.40;;;16.87;;
10851;SDS011;5479;52.046;6.314;2022-10-17T02:30:53;21.20;;;16.50;;
10851;SDS011;5479;52.046;6.314;2022-10-17T02:33:26;19.27;;;17.10;;
10851;SDS011;5479;52.046;6.314;2022-10-17T02:35:59;22.07;;;17.63;;
10851;SDS011;5479;52.046;6.314;2022-10-17T02:38:32;19.80;;;17.20;;
10851;SDS011;5479;52.046;6.314;2022-10-17T02:41:01;18.17;;;16.07;;
10851;SDS011;5479;52.046;6.314;2022-10-17T02:43:32;22.33;;;16.83;;
10851;SDS011;5479;52.046;6.314;2022-10-17T02:46:01;24.50;;;17.80;;
10851;SDS011;5479;52.046;6.314;2022-10-17T02:48:33;20.63;;;17.43;;
10851;SDS011;5479;52.046;6.314;2022-10-17T02:51:06;21.00;;;16.90;;
10851;SDS011;5479;52.046;6.314;2022-10-17T02:53:43;21.77;;;17.13;;
10851;SDS011;5479;52.046;6.314;2022-10-17T02:56:20;22.40;;;17.07;;
10851;SDS011;5479;52.046;6.314;2022-10-17T02:58:49;22.77;;;17.80;;
10851;SDS011;5479;52.046;6.314;2022-10-17T03:01:20;18.97;;;16.30;;
10851;SDS011;5479;52.046;6.314;2022-10-17T03:03:50;20.40;;;17.57;;
10851;SDS011;5479;52.046;6.314;2022-10-17T03:06:30;19.77;;;16.53;;
10851;SDS011;5479;52.046;6.314;2022-10-17T03:08:58;21.73;;;16.93;;
10851;SDS011;5479;52.046;6.314;2022-10-17T03:11:26;19.97;;;17.17;;
10851;SDS011;5479;52.046;6.314;2022-10-17T03:13:54;19.67;;;17.03;;
10851;SDS011;5479;52.046;6.314;2022-10-17T03:16:22;20.80;;;17.27;;
10851;SDS011;5479;52.046;6.314;2022-10-17T03:18:51;19.90;;;16.37;;
10851;SDS011;5479;52.046;6.314;2022-10-17T03:21:19;22.17;;;17.77;;
10851;SDS011;5479;52.046;6.314;2022-10-17T03:23:48;20.27;;;17.17;;
10851;SDS011;5479;52.046;6.314;2022-10-17T03:26:16;21.87;;;17.73;;
10851;SDS011;5479;52.046;6.314;2022-10-17T03:28:44;21.50;;;17.07;;
10851;SDS011;5479;52.046;6.314;2022-10-17T03:31:13;19.33;;;17.07;;
10851;SDS011;5479;52.046;6.314;2022-10-17T03:33:43;24.13;;;18.17;;
10851;SDS011;5479;52.046;6.314;2022-10-17T03:36:13;21.63;;;17.90;;
10851;SDS011;5479;52.046;6.314;2022-10-17T03:38:43;23.03;;;18.60;;
10851;SDS011;5479;52.046;6.314;2022-10-17T03:41:12;21.40;;;17.30;;
10851;SDS011;5479;52.046;6.314;2022-10-17T03:43:40;21.80;;;18.10;;
10851;SDS011;5479;52.046;6.314;2022-10-17T03:46:08;20.73;;;17.40;;
10851;SDS011;5479;52.046;6.314;2022-10-17T03:48:37;22.43;;;17.93;;
10851;SDS011;5479;52.046;6.314;2022-10-17T03:51:06;21.10;;;18.57;;
10851;SDS011;5479;52.046;6.314;2022-10-17T03:53:36;23.33;;;17.90;;
10851;SDS011;5479;52.046;6.314;2022-10-17T03:56:08;23.67;;;17.80;;
10851;SDS011;5479;52.046;6.314;2022-10-17T03:58:37;19.97;;;17.30;;
10851;SDS011;5479;52.046;6.314;2022-10-17T04:01:06;22.27;;;19.27;;
10851;SDS011;5479;52.046;6.314;2022-10-17T04:03:36;24.17;;;18.20;;
10851;SDS011;5479;52.046;6.314;2022-10-17T04:06:05;19.97;;;17.57;;
10851;SDS011;5479;52.046;6.314;2022-10-17T04:08:34;22.93;;;18.17;;
10851;SDS011;5479;52.046;6.314;2022-10-17T04:11:04;20.17;;;17.97;;
10851;SDS011;5479;52.046;6.314;2022-10-17T04:13:33;26.20;;;19.33;;
10851;SDS011;5479;52.046;6.314;2022-10-17T04:16:02;24.50;;;18.70;;
10851;SDS011;5479;52.046;6.314;2022-10-17T04:18:32;22.00;;;18.37;;
10851;SDS011;5479;52.046;6.314;2022-10-17T04:21:01;22.97;;;17.73;;
10851;SDS011;5479;52.046;6.314;2022-10-17T04:23:29;24.17;;;19.23;;
10851;SDS011;5479;52.046;6.314;2022-10-17T04:25:58;23.30;;;19.30;;
10851;SDS011;5479;52.046;6.314;2022-10-17T04:28:28;23.00;;;18.70;;
10851;SDS011;5479;52.046;6.314;2022-10-17T04:30:57;22.33;;;18.90;;
10851;SDS011;5479;52.046;6.314;2022-10-17T04:33:26;23.33;;;19.53;;
10851;SDS011;5479;52.046;6.314;2022-10-17T04:35:55;21.13;;;18.37;;
10851;SDS011;5479;52.046;6.314;2022-10-17T04:38:23;22.67;;;18.07;;
10851;SDS011;5479;52.046;6.314;2022-10-17T04:40:52;21.93;;;17.57;;
10851;SDS011;5479;52.046;6.314;2022-10-17T04:43:20;20.73;;;18.43;;
10851;SDS011;5479;52.046;6.314;2022-10-17T04:45:49;20.20;;;17.83;;
10851;SDS011;5479;52.046;6.314;2022-10-17T04:48:17;22.37;;;17.80;;
10851;SDS011;5479;52.046;6.314;2022-10-17T04:50:51;21.37;;;18.73;;
10851;SDS011;5479;52.046;6.314;2022-10-17T04:53:20;22.07;;;17.50;;
10851;SDS011;5479;52.046;6.314;2022-10-17T04:55:49;21.47;;;18.10;;
10851;SDS011;5479;52.046;6.314;2022-10-17T04:58:17;19.40;;;16.80;;
10851;SDS011;5479;52.046;6.314;2022-10-17T05:00:45;19.50;;;17.40;;
10851;SDS011;5479;52.046;6.314;2022-10-17T05:03:15;19.77;;;17.53;;
10851;SDS011;5479;52.046;6.314;2022-10-17T05:05:43;21.03;;;16.63;;
10851;SDS011;5479;52.046;6.314;2022-10-17T05:08:11;22.50;;;17.03;;
10851;SDS011;5479;52.046;6.314;2022-10-17T05:10:41;17.87;;;15.97;;
10851;SDS011;5479;52.046;6.314;2022-10-17T05:13:11;17.77;;;14.90;;
10851;SDS011;5479;52.046;6.314;2022-10-17T05:15:39;19.27;;;16.13;;
10851;SDS011;5479;52.046;6.314;2022-10-17T05:18:07;19.17;;;15.67;;
10851;SDS011;5479;52.046;6.314;2022-10-17T05:20:36;20.20;;;15.20;;
10851;SDS011;5479;52.046;6.314;2022-10-17T05:23:04;18.87;;;15.50;;
10851;SDS011;5479;52.046;6.314;2022-10-17T05:25:32;17.93;;;15.20;;
10851;SDS011;5479;52.046;6.314;2022-10-17T05:28:00;21.30;;;14.57;;
10851;SDS011;5479;52.046;6.314;2022-10-17T05:30:28;17.03;;;13.83;;
10851;SDS011;5479;52.046;6.314;2022-10-17T05:32:56;15.77;;;14.17;;
10851;SDS011;5479;52.046;6.314;2022-10-17T05:35:24;14.77;;;13.23;;
10851;SDS011;5479;52.046;6.314;2022-10-17T05:37:53;15.57;;;13.20;;
10851;SDS011;5479;52.046;6.314;2022-10-17T05:40:21;16.60;;;13.97;;
10851;SDS011;5479;52.046;6.314;2022-10-17T05:42:49;16.93;;;14.60;;
10851;SDS011;5479;52.046;6.314;2022-10-17T05:45:17;15.43;;;13.57;;
10851;SDS011;5479;52.046;6.314;2022-10-17T05:47:45;14.73;;;13.23;;
10851;SDS011;5479;52.046;6.314;2022-10-17T05:50:13;15.43;;;13.70;;
10851;SDS011;5479;52.046;6.314;2022-10-17T05:52:41;18.90;;;13.33;;
10851;SDS011;5479;52.046;6.314;2022-10-17T05:55:10;16.30;;;13.30;;
10851;SDS011;5479;52.046;6.314;2022-10-17T05:57:39;17.00;;;13.40;;
10851;SDS011;5479;52.046;6.314;2022-10-17T06:00:07;15.97;;;13.70;;
10851;SDS011;5479;52.046;6.314;2022-10-17T06:02:36;14.73;;;13.00;;
10851;SDS011;5479;52.046;6.314;2022-10-17T06:05:04;17.93;;;12.90;;
10851;SDS011;5479;52.046;6.314;2022-10-17T06:07:32;17.90;;;13.30;;
10851;SDS011;5479;52.046;6.314;2022-10-17T06:10:02;14.10;;;12.50;;
10851;SDS011;5479;52.046;6.314;2022-10-17T06:12:32;15.67;;;12.83;;
10851;SDS011;5479;52.046;6.314;2022-10-17T06:15:00;15.83;;;13.00;;
10851;SDS011;5479;52.046;6.314;2022-10-17T06:17:28;15.70;;;13.00;;
10851;SDS011;5479;52.046;6.314;2022-10-17T06:19:56;16.83;;;12.83;;
10851;SDS011;5479;52.046;6.314;2022-10-17T06:22:24;16.50;;;13.27;;
10851;SDS011;5479;52.046;6.314;2022-10-17T06:24:52;15.00;;;12.43;;
10851;SDS011;5479;52.046;6.314;2022-10-17T06:27:20;15.17;;;12.73;;
10851;SDS011;5479;52.046;6.314;2022-10-17T06:29:50;14.43;;;12.63;;
10851;SDS011;5479;52.046;6.314;2022-10-17T06:32:18;13.53;;;11.37;;
10851;SDS011;5479;52.046;6.314;2022-10-17T06:34:46;15.70;;;12.10;;
10851;SDS011;5479;52.046;6.314;2022-10-17T06:37:14;13.03;;;11.47;;
10851;SDS011;5479;52.046;6.314;2022-10-17T06:39:42;15.50;;;11.60;;
10851;SDS011;5479;52.046;6.314;2022-10-17T06:42:10;16.17;;;11.60;;
10851;SDS011;5479;52.046;6.314;2022-10-17T06:44:38;14.63;;;11.63;;
10851;SDS011;5479;52.046;6.314;2022-10-17T06:47:09;15.30;;;10.87;;
10851;SDS011;5479;52.046;6.314;2022-10-17T06:49:37;13.23;;;11.83;;
10851;SDS011;5479;52.046;6.314;2022-10-17T06:52:05;14.03;;;10.90;;
10851;SDS011;5479;52.046;6.314;2022-10-17T06:54:33;14.20;;;10.00;;
10851;SDS011;5479;52.046;6.314;2022-10-17T06:57:01;12.83;;;9.10;;
10851;SDS011;5479;52.046;6.314;2022-10-17T06:59:29;12.73;;;9.30;;
10851;SDS011;5479;52.046;6.314;2022-10-17T07:01:57;10.57;;;9.00;;
10851;SDS011;5479;52.046;6.314;2022-10-17T07:04:28;10.00;;;8.93;;
10851;SDS011;5479;52.046;6.314;2022-10-17T07:06:57;10.33;;;8.03;;
10851;SDS011;5479;52.046;6.314;2022-10-17T07:09:28;10.23;;;9.10;;
10851;SDS011;5479;52.046;6.314;2022-10-17T07:11:56;10.67;;;8.83;;
10851;SDS011;5479;52.046;6.314;2022-10-17T07:14:44;11.33;;;8.93;;
10851;SDS011;5479;52.046;6.314;2022-10-17T07:17:12;11.33;;;9.30;;
10851;SDS011;5479;52.046;6.314;2022-10-17T07:19:41;11.87;;;9.77;;
10851;SDS011;5479;52.046;6.314;2022-10-17T07:22:10;13.57;;;10.90;;
10851;SDS011;5479;52.046;6.314;2022-10-17T07:24:38;14.60;;;11.47;;
10851;SDS011;5479;52.046;6.314;2022-10-17T07:27:06;17.43;;;12.07;;
10851;SDS011;5479;52.046;6.314;2022-10-17T07:29:34;14.53;;;9.90;;
10851;SDS011;5479;52.046;6.314;2022-10-17T07:32:02;13.03;;;9.77;;
10851;SDS011;5479;52.046;6.314;2022-10-17T07:34:34;11.83;;;8.43;;
10851;SDS011;5479;52.046;6.314;2022-10-17T07:37:03;11.77;;;8.10;;
10851;SDS011;5479;52.046;6.314;2022-10-17T07:39:33;9.70;;;7.77;;
10851;SDS011;5479;52.046;6.314;2022-10-17T07:42:02;9.77;;;7.60;;
10851;SDS011;5479;52.046;6.314;2022-10-17T07:44:30;9.82;;;7.22;;
10851;SDS011;5479;52.046;6.314;2022-10-17T07:46:59;11.48;;;7.10;;
10851;SDS011;5479;52.046;6.314;2022-10-17T07:49:27;10.38;;;7.13;;
10851;SDS011;5479;52.046;6.314;2022-10-17T07:51:55;8.85;;;6.57;;
10851;SDS011;5479;52.046;6.314;2022-10-17T07:54:24;7.60;;;6.22;;
10851;SDS011;5479;52.046;6.314;2022-10-17T07:56:52;9.10;;;6.82;;
10851;SDS011;5479;52.046;6.314;2022-10-17T07:59:20;9.40;;;6.97;;
10851;SDS011;5479;52.046;6.314;2022-10-17T08:01:49;10.93;;;6.35;;
10851;SDS011;5479;52.046;6.314;2022-10-17T08:04:17;9.25;;;6.90;;
10851;SDS011;5479;52.046;6.314;2022-10-17T08:06:45;8.57;;;6.75;;
10851;SDS011;5479;52.046;6.314;2022-10-17T08:09:15;8.52;;;6.10;;
10851;SDS011;5479;52.046;6.314;2022-10-17T08:11:44;9.60;;;7.40;;
10851;SDS011;5479;52.046;6.314;2022-10-17T08:14:12;9.65;;;6.82;;
10851;SDS011;5479;52.046;6.314;2022-10-17T08:16:42;10.30;;;7.13;;
10851;SDS011;5479;52.046;6.314;2022-10-17T08:19:10;9.00;;;7.22;;
10851;SDS011;5479;52.046;6.314;2022-10-17T08:21:38;9.43;;;7.30;;
10851;SDS011;5479;52.046;6.314;2022-10-17T08:24:06;10.27;;;7.97;;
10851;SDS011;5479;52.046;6.314;2022-10-17T08:26:35;8.50;;;7.03;;
10851;SDS011;5479;52.046;6.314;2022-10-17T08:29:05;8.95;;;7.53;;
10851;SDS011;5479;52.046;6.314;2022-10-17T08:31:38;10.27;;;7.70;;
10851;SDS011;5479;52.046;6.314;2022-10-17T08:34:06;9.30;;;7.22;;
10851;SDS011;5479;52.046;6.314;2022-10-17T08:36:34;10.07;;;7.35;;
10851;SDS011;5479;52.046;6.314;2022-10-17T08:39:02;9.50;;;7.57;;
10851;SDS011;5479;52.046;6.314;2022-10-17T08:41:37;9.20;;;8.15;;
10851;SDS011;5479;52.046;6.314;2022-10-17T08:44:19;9.90;;;8.07;;
10851;SDS011;5479;52.046;6.314;2022-10-17T08:46:54;10.98;;;7.43;;
10851;SDS011;5479;52.046;6.314;2022-10-17T08:49:27;11.95;;;7.82;;
10851;SDS011;5479;52.046;6.314;2022-10-17T08:52:06;12.87;;;8.20;;
10851;SDS011;5479;52.046;6.314;2022-10-17T08:54:42;12.60;;;8.53;;
10851;SDS011;5479;52.046;6.314;2022-10-17T08:57:12;9.10;;;7.83;;
10851;SDS011;5479;52.046;6.314;2022-10-17T08:59:43;10.80;;;8.40;;
10851;SDS011;5479;52.046;6.314;2022-10-17T09:02:21;12.10;;;8.83;;
10851;SDS011;5479;52.046;6.314;2022-10-17T09:08:04;14.23;;;9.03;;
10851;SDS011;5479;52.046;6.314;2022-10-17T09:10:43;9.10;;;7.80;;
10851;SDS011;5479;52.046;6.314;2022-10-17T09:13:21;10.70;;;8.20;;
10851;SDS011;5479;52.046;6.314;2022-10-17T09:16:12;10.80;;;8.27;;
10851;SDS011;5479;52.046;6.314;2022-10-17T09:18:54;11.83;;;8.97;;
10851;SDS011;5479;52.046;6.314;2022-10-17T09:21:28;11.67;;;9.10;;
10851;SDS011;5479;52.046;6.314;2022-10-17T09:24:09;12.10;;;8.67;;
10851;SDS011;5479;52.046;6.314;2022-10-17T09:26:41;11.40;;;8.50;;
10851;SDS011;5479;52.046;6.314;2022-10-17T09:29:17;9.80;;;8.73;;
10851;SDS011;5479;52.046;6.314;2022-10-17T09:31:52;12.13;;;9.43;;
10851;SDS011;5479;52.046;6.314;2022-10-17T09:34:25;13.63;;;9.83;;
10851;SDS011;5479;52.046;6.314;2022-10-17T09:36:56;10.30;;;9.17;;
10851;SDS011;5479;52.046;6.314;2022-10-17T09:39:25;11.20;;;8.70;;
10851;SDS011;5479;52.046;6.314;2022-10-17T09:41:58;12.43;;;9.00;;
10851;SDS011;5479;52.046;6.314;2022-10-17T09:44:29;10.97;;;9.87;;
10851;SDS011;5479;52.046;6.314;2022-10-17T09:49:49;12.97;;;10.13;;
10851;SDS011;5479;52.046;6.314;2022-10-17T09:52:19;11.70;;;9.97;;
10851;SDS011;5479;52.046;6.314;2022-10-17T09:54:49;16.60;;;10.43;;
10851;SDS011;5479;52.046;6.314;2022-10-17T09:57:19;10.73;;;9.53;;
10851;SDS011;5479;52.046;6.314;2022-10-17T09:59:55;11.13;;;9.73;;
10851;SDS011;5479;52.046;6.314;2022-10-17T10:02:27;12.47;;;9.30;;
10851;SDS011;5479;52.046;6.314;2022-10-17T10:04:58;12.30;;;9.43;;
10851;SDS011;5479;52.046;6.314;2022-10-17T10:07:28;12.20;;;9.77;;
10851;SDS011;5479;52.046;6.314;2022-10-17T10:09:58;14.73;;;9.87;;
10851;SDS011;5479;52.046;6.314;2022-10-17T10:12:29;11.67;;;10.37;;
10851;SDS011;5479;52.046;6.314;2022-10-17T10:14:59;14.20;;;10.97;;
10851;SDS011;5479;52.046;6.314;2022-10-17T10:17:38;15.53;;;11.57;;
10851;SDS011;5479;52.046;6.314;2022-10-17T10:20:24;12.97;;;10.60;;
10851;SDS011;5479;52.046;6.314;2022-10-17T10:23:04;12.25;;;10.48;;
10851;SDS011;5479;52.046;6.314;2022-10-17T10:25:50;14.60;;;10.07;;
10851;SDS011;5479;52.046;6.314;2022-10-17T10:28:21;13.00;;;10.70;;
10851;SDS011;5479;52.046;6.314;2022-10-17T10:30:52;11.23;;;9.83;;
10851;SDS011;5479;52.046;6.314;2022-10-17T10:33:24;12.03;;;9.47;;
10851;SDS011;5479;52.046;6.314;2022-10-17T10:35:54;12.03;;;10.57;;
10851;SDS011;5479;52.046;6.314;2022-10-17T10:38:24;11.27;;;10.07;;
10851;SDS011;5479;52.046;6.314;2022-10-17T10:40:53;11.13;;;9.93;;
10851;SDS011;5479;52.046;6.314;2022-10-17T10:43:28;13.23;;;11.00;;
10851;SDS011;5479;52.046;6.314;2022-10-17T10:46:01;12.50;;;10.67;;
10851;SDS011;5479;52.046;6.314;2022-10-17T10:48:35;14.50;;;11.73;;
10851;SDS011;5479;52.046;6.314;2022-10-17T10:51:07;14.43;;;12.10;;
10851;SDS011;5479;52.046;6.314;2022-10-17T10:53:41;14.57;;;13.07;;
10851;SDS011;5479;52.046;6.314;2022-10-17T10:56:15;15.90;;;13.30;;
10851;SDS011;5479;52.046;6.314;2022-10-17T10:58:53;16.90;;;13.67;;
10851;SDS011;5479;52.046;6.314;2022-10-17T11:01:28;15.60;;;13.83;;
10851;SDS011;5479;52.046;6.314;2022-10-17T11:04:06;17.33;;;13.93;;
10851;SDS011;5479;52.046;6.314;2022-10-17T11:06:46;17.63;;;14.53;;
10851;SDS011;5479;52.046;6.314;2022-10-17T11:09:25;18.40;;;15.00;;
10851;SDS011;5479;52.046;6.314;2022-10-17T11:12:00;14.83;;;12.60;;
10851;SDS011;5479;52.046;6.314;2022-10-17T11:14:35;15.37;;;13.57;;
10851;SDS011;5479;52.046;6.314;2022-10-17T11:17:11;17.00;;;14.30;;
10851;SDS011;5479;52.046;6.314;2022-10-17T11:19:51;18.93;;;14.83;;
10851;SDS011;5479;52.046;6.314;2022-10-17T11:22:30;16.07;;;14.37;;
10851;SDS011;5479;52.046;6.314;2022-10-17T11:24:59;17.20;;;13.73;;
10851;SDS011;5479;52.046;6.314;2022-10-17T11:27:32;16.03;;;14.23;;
10851;SDS011;5479;52.046;6.314;2022-10-17T11:30:01;15.57;;;13.93;;
10851;SDS011;5479;52.046;6.314;2022-10-17T11:32:33;18.03;;;14.47;;
10851;SDS011;5479;52.046;6.314;2022-10-17T11:35:15;17.65;;;13.40;;
10851;SDS011;5479;52.046;6.314;2022-10-17T11:37:49;16.48;;;13.55;;
10851;SDS011;5479;52.046;6.314;2022-10-17T11:40:22;16.33;;;13.25;;
10851;SDS011;5479;52.046;6.314;2022-10-17T11:42:58;14.65;;;13.13;;
10851;SDS011;5479;52.046;6.314;2022-10-17T11:45:29;15.98;;;13.57;;
10851;SDS011;5479;52.046;6.314;2022-10-17T11:48:03;16.30;;;13.68;;
10851;SDS011;5479;52.046;6.314;2022-10-17T11:50:41;16.52;;;13.52;;
10851;SDS011;5479;52.046;6.314;2022-10-17T11:53:13;15.50;;;13.68;;
10851;SDS011;5479;52.046;6.314;2022-10-17T11:55:43;15.43;;;13.82;;
10851;SDS011;5479;52.046;6.314;2022-10-17T11:58:16;14.95;;;13.35;;
10851;SDS011;5479;52.046;6.314;2022-10-17T12:00:59;17.50;;;13.82;;
10851;SDS011;5479;52.046;6.314;2022-10-17T12:03:39;14.70;;;12.85;;
10851;SDS011;5479;52.046;6.314;2022-10-17T12:06:19;14.98;;;13.48;;
10851;SDS011;5479;52.046;6.314;2022-10-17T12:09:00;14.10;;;12.60;;
10851;SDS011;5479;52.046;6.314;2022-10-17T12:11:40;13.85;;;12.30;;
10851;SDS011;5479;52.046;6.314;2022-10-17T12:17:28;13.10;;;11.35;;
10851;SDS011;5479;52.046;6.314;2022-10-17T12:22:58;13.18;;;11.07;;
10851;SDS011;5479;52.046;6.314;2022-10-17T12:25:47;12.65;;;10.55;;
10851;SDS011;5479;52.046;6.314;2022-10-17T12:28:16;12.85;;;9.73;;
10851;SDS011;5479;52.046;6.314;2022-10-17T12:30:51;10.43;;;9.32;;
10851;SDS011;5479;52.046;6.314;2022-10-17T12:33:29;12.57;;;9.20;;
10851;SDS011;5479;52.046;6.314;2022-10-17T12:42:31;13.77;;;9.82;;
10851;SDS011;5479;52.046;6.314;2022-10-17T12:51:14;13.55;;;11.15;;
10851;SDS011;5479;52.046;6.314;2022-10-17T12:53:45;12.77;;;10.73;;
10851;SDS011;5479;52.046;6.314;2022-10-17T12:56:21;14.48;;;11.63;;
10851;SDS011;5479;52.046;6.314;2022-10-17T12:58:58;16.77;;;11.90;;
10851;SDS011;5479;52.046;6.314;2022-10-17T13:01:27;13.55;;;11.70;;
10851;SDS011;5479;52.046;6.314;2022-10-17T13:03:58;16.10;;;12.15;;
10851;SDS011;5479;52.046;6.314;2022-10-17T13:06:31;14.77;;;12.33;;
10851;SDS011;5479;52.046;6.314;2022-10-17T13:09:04;15.02;;;13.10;;
10851;SDS011;5479;52.046;6.314;2022-10-17T13:11:35;15.52;;;13.13;;
10851;SDS011;5479;52.046;6.314;2022-10-17T13:14:10;15.30;;;12.73;;
10851;SDS011;5479;52.046;6.314;2022-10-17T13:16:42;15.83;;;13.00;;
10851;SDS011;5479;52.046;6.314;2022-10-17T13:19:19;15.63;;;13.80;;
10851;SDS011;5479;52.046;6.314;2022-10-17T13:21:51;15.48;;;13.48;;
10851;SDS011;5479;52.046;6.314;2022-10-17T13:24:22;15.20;;;13.05;;
10851;SDS011;5479;52.046;6.314;2022-10-17T13:26:55;14.50;;;11.95;;
10851;SDS011;5479;52.046;6.314;2022-10-17T13:29:25;14.25;;;12.38;;
10851;SDS011;5479;52.046;6.314;2022-10-17T13:31:55;13.77;;;12.27;;
10851;SDS011;5479;52.046;6.314;2022-10-17T13:34:26;13.38;;;11.98;;
10851;SDS011;5479;52.046;6.314;2022-10-17T13:36:56;16.13;;;12.52;;
10851;SDS011;5479;52.046;6.314;2022-10-17T13:39:27;13.90;;;12.43;;
10851;SDS011;5479;52.046;6.314;2022-10-17T13:41:59;14.23;;;12.73;;
10851;SDS011;5479;52.046;6.314;2022-10-17T13:44:31;18.00;;;13.25;;
10851;SDS011;5479;52.046;6.314;2022-10-17T13:47:00;15.13;;;12.13;;
10851;SDS011;5479;52.046;6.314;2022-10-17T13:49:30;14.13;;;12.68;;
10851;SDS011;5479;52.046;6.314;2022-10-17T13:52:01;15.63;;;13.65;;
10851;SDS011;5479;52.046;6.314;2022-10-17T13:54:35;15.63;;;14.02;;
10851;SDS011;5479;52.046;6.314;2022-10-17T13:57:13;15.35;;;13.75;;
10851;SDS011;5479;52.046;6.314;2022-10-17T13:59:46;16.10;;;14.40;;
10851;SDS011;5479;52.046;6.314;2022-10-17T14:02:18;17.23;;;15.15;;
10851;SDS011;5479;52.046;6.314;2022-10-17T14:04:57;17.42;;;15.15;;
10851;SDS011;5479;52.046;6.314;2022-10-17T14:07:27;16.23;;;14.10;;
10851;SDS011;5479;52.046;6.314;2022-10-17T14:10:02;19.67;;;15.87;;
10851;SDS011;5479;52.046;6.314;2022-10-17T14:12:31;17.87;;;14.53;;
10851;SDS011;5479;52.046;6.314;2022-10-17T14:15:02;17.77;;;15.55;;
10851;SDS011;5479;52.046;6.314;2022-10-17T14:17:31;17.75;;;14.98;;
10851;SDS011;5479;52.046;6.314;2022-10-17T14:20:00;18.43;;;15.47;;
10851;SDS011;5479;52.046;6.314;2022-10-17T14:22:32;16.33;;;14.57;;
10851;SDS011;5479;52.046;6.314;2022-10-17T14:25:03;16.75;;;14.80;;
10851;SDS011;5479;52.046;6.314;2022-10-17T14:27:32;16.95;;;14.70;;
10851;SDS011;5479;52.046;6.314;2022-10-17T14:30:03;16.55;;;14.55;;
10851;SDS011;5479;52.046;6.314;2022-10-17T14:32:34;15.68;;;13.88;;
10851;SDS011;5479;52.046;6.314;2022-10-17T14:35:04;18.95;;;14.10;;
10851;SDS011;5479;52.046;6.314;2022-10-17T14:37:35;15.30;;;13.68;;
10851;SDS011;5479;52.046;6.314;2022-10-17T14:40:13;16.73;;;12.80;;
10851;SDS011;5479;52.046;6.314;2022-10-17T14:42:45;13.15;;;11.77;;
10851;SDS011;5479;52.046;6.314;2022-10-17T14:45:18;14.52;;;12.98;;
10851;SDS011;5479;52.046;6.314;2022-10-17T14:47:51;15.50;;;12.40;;
10851;SDS011;5479;52.046;6.314;2022-10-17T14:50:23;16.17;;;12.37;;
10851;SDS011;5479;52.046;6.314;2022-10-17T14:52:59;14.27;;;12.80;;
10851;SDS011;5479;52.046;6.314;2022-10-17T14:55:29;16.63;;;12.52;;
10851;SDS011;5479;52.046;6.314;2022-10-17T14:57:59;14.48;;;12.98;;
10851;SDS011;5479;52.046;6.314;2022-10-17T15:00:30;15.03;;;13.50;;
10851;SDS011;5479;52.046;6.314;2022-10-17T15:02:59;13.65;;;12.23;;
10851;SDS011;5479;52.046;6.314;2022-10-17T15:05:27;15.00;;;13.50;;
10851;SDS011;5479;52.046;6.314;2022-10-17T15:07:54;15.93;;;12.85;;
10851;SDS011;5479;52.046;6.314;2022-10-17T15:10:30;16.13;;;13.88;;
10851;SDS011;5479;52.046;6.314;2022-10-17T15:13:00;14.82;;;13.40;;
10851;SDS011;5479;52.046;6.314;2022-10-17T15:15:30;14.63;;;13.07;;
10851;SDS011;5479;52.046;6.314;2022-10-17T15:17:58;16.38;;;13.63;;
10851;SDS011;5479;52.046;6.314;2022-10-17T15:20:26;17.40;;;13.68;;
10851;SDS011;5479;52.046;6.314;2022-10-17T15:22:56;15.27;;;13.65;;
10851;SDS011;5479;52.046;6.314;2022-10-17T15:25:26;15.73;;;14.05;;
10851;SDS011;5479;52.046;6.314;2022-10-17T15:27:58;16.55;;;14.85;;
10851;SDS011;5479;52.046;6.314;2022-10-17T15:30:28;16.73;;;14.93;;